createdAt,value
2018-09-04T00:00:16.656Z,16.42
2018-09-04T00:01:16.660Z,16.45
2018-09-04T00:02:16.934Z,16.43
2018-09-04T00:03:17.212Z,16.42
2018-09-04T00:04:16.477Z,16.42
2018-09-04T00:05:16.783Z,16.39
2018-09-04T00:06:17.052Z,16.39
2018-09-04T00:07:16.320Z,16.42
2018-09-04T00:08:16.577Z,16.40
2018-09-04T00:09:16.853Z,16.40
2018-09-04T00:10:17.130Z,16.40
2018-09-04T00:11:17.179Z,16.43
2018-09-04T00:12:16.450Z,16.40
2018-09-04T00:13:16.726Z,16.38
2018-09-04T00:14:16.999Z,16.39
2018-09-04T00:15:16.269Z,16.40
2018-09-04T00:16:16.554Z,16.42
2018-09-04T00:17:16.822Z,16.42
2018-09-04T00:18:17.097Z,16.42
2018-09-04T00:19:16.369Z,16.42
2018-09-04T00:20:16.642Z,16.36
2018-09-04T00:21:16.691Z,16.39
2018-09-04T00:22:16.965Z,16.33
2018-09-04T00:23:16.227Z,16.35
2018-09-04T00:24:16.505Z,16.35
2018-09-04T00:25:16.774Z,16.32
2018-09-04T00:26:17.040Z,16.33
2018-09-04T00:27:16.324Z,16.35
2018-09-04T00:28:16.611Z,16.35
2018-09-04T00:29:16.883Z,16.31
2018-09-04T00:30:17.172Z,16.33
2018-09-04T00:31:17.191Z,16.32
2018-09-04T00:32:16.461Z,16.33
2018-09-04T00:33:16.742Z,16.35
2018-09-04T00:34:17.030Z,16.32
2018-09-04T00:35:16.397Z,16.33
2018-09-04T00:36:16.670Z,16.29
2018-09-04T00:37:16.949Z,16.31
2018-09-04T00:38:16.239Z,16.28
2018-09-04T00:39:16.510Z,16.25
2018-09-04T00:40:16.794Z,16.25
2018-09-04T00:41:16.810Z,16.27
2018-09-04T00:42:17.087Z,16.25
2018-09-04T00:43:16.359Z,16.25
2018-09-04T00:44:16.624Z,16.22
2018-09-04T00:45:16.894Z,16.18
2018-09-04T00:46:17.161Z,16.21
2018-09-04T00:47:16.430Z,16.21
2018-09-04T00:48:16.697Z,16.18
2018-09-04T00:49:16.965Z,16.21
2018-09-04T00:50:16.253Z,16.22
2018-09-04T00:51:16.284Z,16.17
2018-09-04T00:52:16.549Z,16.18
2018-09-04T00:53:16.820Z,16.15
2018-09-04T00:54:17.117Z,16.18
2018-09-04T00:55:16.387Z,16.15
2018-09-04T00:56:16.655Z,16.14
2018-09-04T00:57:16.921Z,16.12
2018-09-04T00:58:17.186Z,16.09
2018-09-04T00:59:16.461Z,16.15
2018-09-04T01:00:16.746Z,16.14
2018-09-04T01:01:16.787Z,16.11
2018-09-04T01:02:17.056Z,16.09
2018-09-04T01:03:16.330Z,16.05
2018-09-04T01:04:16.605Z,16.09
2018-09-04T01:05:16.879Z,16.08
2018-09-04T01:06:17.133Z,16.08
2018-09-04T01:07:16.400Z,16.05
2018-09-04T01:08:16.664Z,16.04
2018-09-04T01:09:16.929Z,16.07
2018-09-04T01:10:17.208Z,16.08
2018-09-04T01:11:16.618Z,16.08
2018-09-04T01:12:16.898Z,16.05
2018-09-04T01:13:17.175Z,16.07
2018-09-04T01:14:16.446Z,16.02
2018-09-04T01:15:16.717Z,16.05
2018-09-04T01:16:16.983Z,16.05
2018-09-04T01:17:16.256Z,16.02
2018-09-04T01:18:16.528Z,16.01
2018-09-04T01:19:16.796Z,16.00
2018-09-04T01:20:17.090Z,16.00
2018-09-04T01:21:17.116Z,15.98
2018-09-04T01:22:16.393Z,15.98
2018-09-04T01:23:16.654Z,15.97
2018-09-04T01:24:16.922Z,15.98
2018-09-04T01:25:17.184Z,16.00
2018-09-04T01:26:16.462Z,16.01
2018-09-04T01:27:16.734Z,16.00
2018-09-04T01:28:17.007Z,16.00
2018-09-04T01:29:16.279Z,16.00
2018-09-04T01:30:16.549Z,15.98
2018-09-04T01:31:16.610Z,15.95
2018-09-04T01:32:16.882Z,15.97
2018-09-04T01:33:17.140Z,15.98
2018-09-04T01:34:16.404Z,15.95
2018-09-04T01:35:16.672Z,15.97
2018-09-04T01:36:16.953Z,16.00
2018-09-04T01:37:16.220Z,16.01
2018-09-04T01:38:16.489Z,16.00
2018-09-04T01:39:16.758Z,16.00
2018-09-04T01:40:17.036Z,15.97
2018-09-04T01:41:17.070Z,15.98
2018-09-04T01:42:16.344Z,15.95
2018-09-04T01:43:16.612Z,15.98
2018-09-04T01:44:16.888Z,15.95
2018-09-04T01:45:17.151Z,15.98
2018-09-04T01:46:16.424Z,15.98
2018-09-04T01:47:16.696Z,15.94
2018-09-04T01:48:16.964Z,15.98
2018-09-04T01:49:16.244Z,15.97
2018-09-04T01:50:16.521Z,16.00
2018-09-04T01:51:16.578Z,16.01
2018-09-04T01:52:16.857Z,16.02
2018-09-04T01:53:17.133Z,16.01
2018-09-04T01:54:16.404Z,16.02
2018-09-04T01:55:16.669Z,16.02
2018-09-04T01:56:16.939Z,15.98
2018-09-04T01:57:16.210Z,16.02
2018-09-04T01:58:16.479Z,16.01
2018-09-04T01:59:16.748Z,16.02
2018-09-04T02:00:17.016Z,16.01
2018-09-04T02:01:17.086Z,16.04
2018-09-04T02:02:16.348Z,16.01
2018-09-04T02:03:16.625Z,16.02
2018-09-04T02:04:16.907Z,16.05
2018-09-04T02:05:17.196Z,16.07
2018-09-04T02:06:16.466Z,16.05
2018-09-04T02:07:16.935Z,16.02
2018-09-04T02:08:17.654Z,16.02
2018-09-04T02:09:16.920Z,16.04
2018-09-04T02:10:17.193Z,16.07
2018-09-04T02:11:16.240Z,16.07
2018-09-04T02:12:16.512Z,16.07
2018-09-04T02:13:16.782Z,16.05
2018-09-04T02:14:17.038Z,16.05
2018-09-04T02:15:16.481Z,16.09
2018-09-04T02:16:16.766Z,16.09
2018-09-04T02:17:17.051Z,16.09
2018-09-04T02:18:16.322Z,16.08
2018-09-04T02:19:16.586Z,16.07
2018-09-04T02:20:16.869Z,16.09
2018-09-04T02:21:16.907Z,16.09
2018-09-04T02:22:17.186Z,16.11
2018-09-04T02:23:16.457Z,16.05
2018-09-04T02:24:16.744Z,16.05
2018-09-04T02:25:17.021Z,16.05
2018-09-04T02:26:16.288Z,16.08
2018-09-04T02:27:16.553Z,16.08
2018-09-04T02:28:16.816Z,16.05
2018-09-04T02:29:17.097Z,16.09
2018-09-04T02:30:16.411Z,16.08
2018-09-04T02:31:16.438Z,16.07
2018-09-04T02:32:16.713Z,16.04
2018-09-04T02:33:16.978Z,16.09
2018-09-04T02:34:16.251Z,16.08
2018-09-04T02:35:16.527Z,16.11
2018-09-04T02:36:16.803Z,16.11
2018-09-04T02:37:17.093Z,16.09
2018-09-04T02:38:16.358Z,16.07
2018-09-04T02:39:16.631Z,16.05
2018-09-04T02:40:17.232Z,16.05
2018-09-04T02:41:16.982Z,16.11
2018-09-04T02:42:16.258Z,16.05
2018-09-04T02:43:16.524Z,16.04
2018-09-04T02:44:16.788Z,16.01
2018-09-04T02:45:16.248Z,16.04
2018-09-04T02:46:16.518Z,16.02
2018-09-04T02:47:16.799Z,16.00
2018-09-04T02:48:17.065Z,15.98
2018-09-04T02:49:16.333Z,16.01
2018-09-04T02:50:16.605Z,16.00
2018-09-04T02:51:16.648Z,16.00
2018-09-04T02:52:16.913Z,16.01
2018-09-04T02:53:17.189Z,16.00
2018-09-04T02:54:16.464Z,16.00
2018-09-04T02:55:16.754Z,15.98
2018-09-04T02:56:17.029Z,16.00
2018-09-04T02:57:16.297Z,15.97
2018-09-04T02:58:16.566Z,16.00
2018-09-04T02:59:16.836Z,15.97
2018-09-04T03:00:17.132Z,16.00
2018-09-04T03:01:17.177Z,16.00
2018-09-04T03:02:16.455Z,16.04
2018-09-04T03:03:16.716Z,15.98
2018-09-04T03:04:16.990Z,15.98
2018-09-04T03:05:16.265Z,16.00
2018-09-04T03:06:16.549Z,15.98
2018-09-04T03:07:16.823Z,16.00
2018-09-04T03:08:17.087Z,16.00
2018-09-04T03:09:16.361Z,16.00
2018-09-04T03:10:16.637Z,16.00
2018-09-04T03:11:16.683Z,16.00
2018-09-04T03:12:16.953Z,15.98
2018-09-04T03:13:16.228Z,15.95
2018-09-04T03:14:16.525Z,15.88
2018-09-04T03:15:16.798Z,15.91
2018-09-04T03:16:17.567Z,15.92
2018-09-04T03:17:16.854Z,15.92
2018-09-04T03:18:17.118Z,15.95
2018-09-04T03:19:16.414Z,15.95
2018-09-04T03:20:16.690Z,15.91
2018-09-04T03:21:16.736Z,15.91
2018-09-04T03:22:17.007Z,15.90
2018-09-04T03:23:16.352Z,15.88
2018-09-04T03:24:16.845Z,15.90
2018-09-04T03:25:17.114Z,15.90
2018-09-04T03:26:16.379Z,15.88
2018-09-04T03:27:16.648Z,15.90
2018-09-04T03:28:16.913Z,15.88
2018-09-04T03:29:17.188Z,15.85
2018-09-04T03:30:16.496Z,15.87
2018-09-04T03:31:16.512Z,15.87
2018-09-04T03:32:16.783Z,15.87
2018-09-04T03:33:17.054Z,15.82
2018-09-04T03:34:16.331Z,15.87
2018-09-04T03:35:16.606Z,15.84
2018-09-04T03:36:16.848Z,15.84
2018-09-04T03:37:17.121Z,15.84
2018-09-04T03:38:16.387Z,15.82
2018-09-04T03:39:16.657Z,15.84
2018-09-04T03:40:16.952Z,15.80
2018-09-04T03:41:16.981Z,15.82
2018-09-04T03:42:16.292Z,15.80
2018-09-04T03:43:16.601Z,15.80
2018-09-04T03:44:16.905Z,15.78
2018-09-04T03:45:16.273Z,15.78
2018-09-04T03:46:16.558Z,15.77
2018-09-04T03:47:16.861Z,15.77
2018-09-04T03:48:17.136Z,15.78
2018-09-04T03:49:16.405Z,15.81
2018-09-04T03:50:16.676Z,15.81
2018-09-04T03:51:16.718Z,15.84
2018-09-04T03:52:17.068Z,15.82
2018-09-04T03:53:16.540Z,15.78
2018-09-04T03:54:16.814Z,15.81
2018-09-04T03:55:17.082Z,15.81
2018-09-04T03:56:16.343Z,15.78
2018-09-04T03:57:16.622Z,15.80
2018-09-04T03:58:16.894Z,15.80
2018-09-04T03:59:17.161Z,15.78
2018-09-04T04:00:16.440Z,15.80
2018-09-04T04:01:16.493Z,15.77
2018-09-04T04:02:16.788Z,15.81
2018-09-04T04:03:17.054Z,15.80
2018-09-04T04:04:16.320Z,15.77
2018-09-04T04:05:16.572Z,15.76
2018-09-04T04:06:16.835Z,15.78
2018-09-04T04:07:17.112Z,15.74
2018-09-04T04:08:16.372Z,15.73
2018-09-04T04:09:16.639Z,15.76
2018-09-04T04:10:16.918Z,15.76
2018-09-04T04:11:16.956Z,15.73
2018-09-04T04:12:16.225Z,15.74
2018-09-04T04:13:16.493Z,15.74
2018-09-04T04:14:16.755Z,15.73
2018-09-04T04:15:17.030Z,15.71
2018-09-04T04:16:16.300Z,15.77
2018-09-04T04:17:16.573Z,15.71
2018-09-04T04:18:16.840Z,15.73
2018-09-04T04:19:17.112Z,15.74
2018-09-04T04:20:16.395Z,15.71
2018-09-04T04:21:16.427Z,15.71
2018-09-04T04:22:16.708Z,15.71
2018-09-04T04:23:16.971Z,15.70
2018-09-04T04:24:16.244Z,15.71
2018-09-04T04:25:16.536Z,15.70
2018-09-04T04:26:16.822Z,15.71
2018-09-04T04:27:17.149Z,15.67
2018-09-04T04:28:16.430Z,15.66
2018-09-04T04:29:16.699Z,15.69
2018-09-04T04:30:16.999Z,15.66
2018-09-04T04:31:17.029Z,15.67
2018-09-04T04:32:16.297Z,15.66
2018-09-04T04:33:16.592Z,15.66
2018-09-04T04:34:16.860Z,15.64
2018-09-04T04:35:17.141Z,15.66
2018-09-04T04:36:16.416Z,15.64
2018-09-04T04:37:16.685Z,15.69
2018-09-04T04:38:16.960Z,15.69
2018-09-04T04:39:16.243Z,15.67
2018-09-04T04:40:16.568Z,15.70
2018-09-04T04:41:16.588Z,15.69
2018-09-04T04:42:16.858Z,15.67
2018-09-04T04:43:17.139Z,15.69
2018-09-04T04:44:16.419Z,15.69
2018-09-04T04:45:16.682Z,15.69
2018-09-04T04:46:16.949Z,15.73
2018-09-04T04:47:16.234Z,15.69
2018-09-04T04:48:16.581Z,15.70
2018-09-04T04:49:17.029Z,15.70
2018-09-04T04:50:16.330Z,15.71
2018-09-04T04:51:16.355Z,15.73
2018-09-04T04:52:16.625Z,15.71
2018-09-04T04:53:16.904Z,15.70
2018-09-04T04:54:17.161Z,15.69
2018-09-04T04:55:16.433Z,15.69
2018-09-04T04:56:16.705Z,15.63
2018-09-04T04:57:16.967Z,15.69
2018-09-04T04:58:16.229Z,15.69
2018-09-04T04:59:16.504Z,15.70
2018-09-04T05:00:16.829Z,15.67
2018-09-04T05:01:16.834Z,15.70
2018-09-04T05:02:17.120Z,15.66
2018-09-04T05:03:16.398Z,15.66
2018-09-04T05:04:16.664Z,15.67
2018-09-04T05:05:17.018Z,15.60
2018-09-04T05:06:16.296Z,15.62
2018-09-04T05:07:16.570Z,15.64
2018-09-04T05:08:16.845Z,15.67
2018-09-04T05:09:17.123Z,15.62
2018-09-04T05:10:16.413Z,15.64
2018-09-04T05:11:16.499Z,15.64
2018-09-04T05:12:17.041Z,15.67
2018-09-04T05:13:16.304Z,15.67
2018-09-04T05:14:16.577Z,15.71
2018-09-04T05:15:16.847Z,15.70
2018-09-04T05:16:17.121Z,15.69
2018-09-04T05:17:16.401Z,15.71
2018-09-04T05:18:16.662Z,15.67
2018-09-04T05:19:16.941Z,15.64
2018-09-04T05:20:16.215Z,15.70
2018-09-04T05:21:16.269Z,15.70
2018-09-04T05:22:16.536Z,15.71
2018-09-04T05:23:16.809Z,15.73
2018-09-04T05:24:17.088Z,15.74
2018-09-04T05:25:16.358Z,15.71
2018-09-04T05:26:16.627Z,15.74
2018-09-04T05:27:16.893Z,15.76
2018-09-04T05:28:17.154Z,15.73
2018-09-04T05:29:16.472Z,15.74
2018-09-04T05:30:16.817Z,15.76
2018-09-04T05:31:16.863Z,15.78
2018-09-04T05:32:17.142Z,15.80
2018-09-04T05:33:16.410Z,15.84
2018-09-04T05:34:16.680Z,15.77
2018-09-04T05:35:16.968Z,15.76
2018-09-04T05:36:16.256Z,15.78
2018-09-04T05:37:16.539Z,15.81
2018-09-04T05:38:16.819Z,15.82
2018-09-04T05:39:17.081Z,15.84
2018-09-04T05:40:16.362Z,15.87
2018-09-04T05:41:16.397Z,15.87
2018-09-04T05:42:16.662Z,15.88
2018-09-04T05:43:16.933Z,15.92
2018-09-04T05:44:17.210Z,15.92
2018-09-04T05:45:16.488Z,15.84
2018-09-04T05:46:16.765Z,15.88
2018-09-04T05:47:17.035Z,15.82
2018-09-04T05:48:16.590Z,15.84
2018-09-04T05:49:16.855Z,15.87
2018-09-04T05:50:17.142Z,15.90
2018-09-04T05:51:17.186Z,15.88
2018-09-04T05:52:16.481Z,15.82
2018-09-04T05:53:16.766Z,15.87
2018-09-04T05:54:17.055Z,15.87
2018-09-04T05:55:16.410Z,15.88
2018-09-04T05:56:16.796Z,15.92
2018-09-04T05:57:17.062Z,15.95
2018-09-04T05:58:16.333Z,15.91
2018-09-04T05:59:16.606Z,15.95
2018-09-04T06:00:16.889Z,15.97
2018-09-04T06:01:16.941Z,16.05
2018-09-04T06:02:16.212Z,16.01
2018-09-04T06:03:16.502Z,15.95
2018-09-04T06:04:16.779Z,15.90
2018-09-04T06:05:17.048Z,15.95
2018-09-04T06:06:16.317Z,16.01
2018-09-04T06:07:16.578Z,16.02
2018-09-04T06:08:16.847Z,16.05
2018-09-04T06:09:17.126Z,16.05
2018-09-04T06:10:16.420Z,16.09
2018-09-04T06:11:16.461Z,16.14
2018-09-04T06:12:16.741Z,16.19
2018-09-04T06:13:17.025Z,16.08
2018-09-04T06:14:16.301Z,16.12
2018-09-04T06:15:16.573Z,16.11
2018-09-04T06:16:16.847Z,16.11
2018-09-04T06:17:17.116Z,16.04
2018-09-04T06:18:16.384Z,16.02
2018-09-04T06:19:16.663Z,16.07
2018-09-04T06:20:16.941Z,16.07
2018-09-04T06:21:16.993Z,16.11
2018-09-04T06:22:16.257Z,16.19
2018-09-04T06:23:16.536Z,16.21
2018-09-04T06:24:16.824Z,16.22
2018-09-04T06:25:17.099Z,16.14
2018-09-04T06:26:16.385Z,16.11
2018-09-04T06:27:16.661Z,16.19
2018-09-04T06:28:16.940Z,16.18
2018-09-04T06:29:16.211Z,16.17
2018-09-04T06:30:16.500Z,16.17
2018-09-04T06:31:16.547Z,16.19
2018-09-04T06:32:16.828Z,16.32
2018-09-04T06:33:17.273Z,16.22
2018-09-04T06:34:16.756Z,16.12
2018-09-04T06:35:17.036Z,16.17
2018-09-04T06:36:16.319Z,16.15
2018-09-04T06:37:16.596Z,16.18
2018-09-04T06:38:16.865Z,16.15
2018-09-04T06:39:17.254Z,16.18
2018-09-04T06:40:16.526Z,16.17
2018-09-04T06:41:16.578Z,16.11
2018-09-04T06:42:16.844Z,16.08
2018-09-04T06:43:17.108Z,16.14
2018-09-04T06:44:16.377Z,16.15
2018-09-04T06:45:16.650Z,16.15
2018-09-04T06:46:16.919Z,16.17
2018-09-04T06:47:17.188Z,16.17
2018-09-04T06:48:16.459Z,16.18
2018-09-04T06:49:16.746Z,16.15
2018-09-04T06:50:17.019Z,16.12
2018-09-04T06:51:17.065Z,16.15
2018-09-04T06:52:16.340Z,16.17
2018-09-04T06:53:16.607Z,16.22
2018-09-04T06:54:16.876Z,16.25
2018-09-04T06:55:17.149Z,16.21
2018-09-04T06:56:16.407Z,16.17
2018-09-04T06:57:16.680Z,16.18
2018-09-04T06:58:16.942Z,16.15
2018-09-04T06:59:16.217Z,16.17
2018-09-04T07:00:16.522Z,16.19
2018-09-04T07:01:16.549Z,16.21
2018-09-04T07:02:16.821Z,16.18
2018-09-04T07:03:17.100Z,16.12
2018-09-04T07:04:16.372Z,16.18
2018-09-04T07:05:16.642Z,16.21
2018-09-04T07:06:16.910Z,16.19
2018-09-04T07:07:17.182Z,16.21
2018-09-04T07:08:16.453Z,16.28
2018-09-04T07:09:16.735Z,16.17
2018-09-04T07:10:17.011Z,16.14
2018-09-04T07:11:17.062Z,16.19
2018-09-04T07:12:16.338Z,16.21
2018-09-04T07:13:16.609Z,16.19
2018-09-04T07:14:16.889Z,16.21
2018-09-04T07:15:17.156Z,16.24
2018-09-04T07:16:16.432Z,16.19
2018-09-04T07:17:16.705Z,16.19
2018-09-04T07:18:16.983Z,16.19
2018-09-04T07:19:16.274Z,16.21
2018-09-04T07:20:16.554Z,16.19
2018-09-04T07:21:16.615Z,16.12
2018-09-04T07:22:16.888Z,16.15
2018-09-04T07:23:17.162Z,16.14
2018-09-04T07:24:16.511Z,16.24
2018-09-04T07:25:16.962Z,16.19
2018-09-04T07:26:16.226Z,16.15
2018-09-04T07:27:16.491Z,16.14
2018-09-04T07:28:16.766Z,16.15
2018-09-04T07:29:17.068Z,16.14
2018-09-04T07:30:16.352Z,16.11
2018-09-04T07:31:16.401Z,16.14
2018-09-04T07:32:16.673Z,16.11
2018-09-04T07:33:16.939Z,16.15
2018-09-04T07:34:16.202Z,16.17
2018-09-04T07:35:16.485Z,16.18
2018-09-04T07:36:16.831Z,16.17
2018-09-04T07:37:17.145Z,16.15
2018-09-04T07:38:16.410Z,16.15
2018-09-04T07:39:16.681Z,16.19
2018-09-04T07:40:16.962Z,16.21
2018-09-04T07:41:16.988Z,16.21
2018-09-04T07:42:16.253Z,16.18
2018-09-04T07:43:16.524Z,16.21
2018-09-04T07:44:16.797Z,16.25
2018-09-04T07:45:17.079Z,16.28
2018-09-04T07:46:16.351Z,16.24
2018-09-04T07:47:16.612Z,16.28
2018-09-04T07:48:16.877Z,16.32
2018-09-04T07:49:17.154Z,16.40
2018-09-04T07:50:16.445Z,16.40
2018-09-04T07:51:16.459Z,16.40
2018-09-04T07:52:16.733Z,16.36
2018-09-04T07:53:16.998Z,16.35
2018-09-04T07:54:16.272Z,16.40
2018-09-04T07:55:16.541Z,16.42
2018-09-04T07:56:16.806Z,16.45
2018-09-04T07:57:17.092Z,16.40
2018-09-04T07:58:16.356Z,16.40
2018-09-04T07:59:16.636Z,16.46
2018-09-04T08:00:16.929Z,16.50
2018-09-04T08:01:16.933Z,16.52
2018-09-04T08:02:16.211Z,16.57
2018-09-04T08:03:16.528Z,16.62
2018-09-04T08:04:16.804Z,16.57
2018-09-04T08:05:17.089Z,16.62
2018-09-04T08:06:16.355Z,16.66
2018-09-04T08:07:16.623Z,16.67
2018-09-04T08:08:16.887Z,16.70
2018-09-04T08:09:17.154Z,16.66
2018-09-04T08:10:16.554Z,16.62
2018-09-04T08:11:16.481Z,16.53
2018-09-04T08:12:16.757Z,16.55
2018-09-04T08:13:17.036Z,16.64
2018-09-04T08:14:16.305Z,16.64
2018-09-04T08:15:16.576Z,16.64
2018-09-04T08:16:16.878Z,16.67
2018-09-04T08:17:17.202Z,16.68
2018-09-04T08:18:16.474Z,16.73
2018-09-04T08:19:16.752Z,16.76
2018-09-04T08:20:17.077Z,16.80
2018-09-04T08:21:17.064Z,16.81
2018-09-04T08:22:16.338Z,16.84
2018-09-04T08:23:16.606Z,16.80
2018-09-04T08:24:16.880Z,16.86
2018-09-04T08:25:17.153Z,16.88
2018-09-04T08:26:16.539Z,16.83
2018-09-04T08:27:16.889Z,16.86
2018-09-04T08:28:17.162Z,16.81
2018-09-04T08:29:16.438Z,16.86
2018-09-04T08:30:16.731Z,16.93
2018-09-04T08:31:16.770Z,16.98
2018-09-04T08:32:17.043Z,17.10
2018-09-04T08:33:16.352Z,17.14
2018-09-04T08:34:16.861Z,17.24
2018-09-04T08:35:17.143Z,17.21
2018-09-04T08:36:16.409Z,17.01
2018-09-04T08:37:16.687Z,16.98
2018-09-04T08:38:16.950Z,17.03
2018-09-04T08:39:16.218Z,17.15
2018-09-04T08:40:16.491Z,17.13
2018-09-04T08:41:16.558Z,17.15
2018-09-04T08:42:16.826Z,17.19
2018-09-04T08:43:17.099Z,17.21
2018-09-04T08:44:16.381Z,17.21
2018-09-04T08:45:16.648Z,17.14
2018-09-04T08:46:16.922Z,17.13
2018-09-04T08:47:17.286Z,17.25
2018-09-04T08:48:16.787Z,17.29
2018-09-04T08:49:17.066Z,17.33
2018-09-04T08:50:16.350Z,17.38
2018-09-04T08:51:16.406Z,17.39
2018-09-04T08:52:16.675Z,17.42
2018-09-04T08:53:16.985Z,17.26
2018-09-04T08:54:16.283Z,17.14
2018-09-04T08:55:16.608Z,17.18
2018-09-04T08:56:16.905Z,17.25
2018-09-04T08:57:17.184Z,17.17
2018-09-04T08:58:16.458Z,17.22
2018-09-04T08:59:16.730Z,17.21
2018-09-04T09:00:17.016Z,17.31
2018-09-04T09:01:17.073Z,17.21
2018-09-04T09:02:16.346Z,17.28
2018-09-04T09:03:16.609Z,17.36
2018-09-04T09:04:16.867Z,17.22
2018-09-04T09:05:17.189Z,17.21
2018-09-04T09:06:16.464Z,17.24
2018-09-04T09:07:16.778Z,17.26
2018-09-04T09:08:17.051Z,17.36
2018-09-04T09:09:16.331Z,17.39
2018-09-04T09:10:16.611Z,17.45
2018-09-04T09:11:16.653Z,17.29
2018-09-04T09:12:16.918Z,17.35
2018-09-04T09:13:17.214Z,17.43
2018-09-04T09:14:16.512Z,17.43
2018-09-04T09:15:16.794Z,17.38
2018-09-04T09:16:17.067Z,17.36
2018-09-04T09:17:16.334Z,17.46
2018-09-04T09:18:16.600Z,17.53
2018-09-04T09:19:16.872Z,17.70
2018-09-04T09:20:17.143Z,17.69
2018-09-04T09:21:17.170Z,17.74
2018-09-04T09:22:16.437Z,17.77
2018-09-04T09:23:16.711Z,17.68
2018-09-04T09:24:16.978Z,17.56
2018-09-04T09:25:16.252Z,17.66
2018-09-04T09:26:16.519Z,17.83
2018-09-04T09:27:16.783Z,17.84
2018-09-04T09:28:17.037Z,17.90
2018-09-04T09:29:16.306Z,17.93
2018-09-04T09:30:16.596Z,17.84
2018-09-04T09:31:16.618Z,17.96
2018-09-04T09:32:16.880Z,17.84
2018-09-04T09:33:17.146Z,18.00
2018-09-04T09:34:16.417Z,18.05
2018-09-04T09:35:16.712Z,18.31
2018-09-04T09:36:16.210Z,18.27
2018-09-04T09:37:16.492Z,18.44
2018-09-04T09:38:16.760Z,18.49
2018-09-04T09:39:17.033Z,18.60
2018-09-04T09:40:16.311Z,18.63
2018-09-04T09:41:16.370Z,18.73
2018-09-04T09:42:16.642Z,18.33
2018-09-04T09:43:16.912Z,18.46
2018-09-04T09:44:17.200Z,18.65
2018-09-04T09:45:16.477Z,18.70
2018-09-04T09:46:16.746Z,18.72
2018-09-04T09:47:17.013Z,18.65
2018-09-04T09:48:16.293Z,18.66
2018-09-04T09:49:16.553Z,18.73
2018-09-04T09:50:16.830Z,18.88
2018-09-04T09:51:16.889Z,19.03
2018-09-04T09:52:17.154Z,19.00
2018-09-04T09:53:16.583Z,19.00
2018-09-04T09:54:16.233Z,18.84
2018-09-04T09:55:16.506Z,19.08
2018-09-04T09:56:16.826Z,19.15
2018-09-04T09:57:16.337Z,19.03
2018-09-04T09:58:16.639Z,18.93
2018-09-04T09:59:16.919Z,18.98
2018-09-04T10:00:17.259Z,18.93
2018-09-04T10:01:16.260Z,18.86
2018-09-04T10:02:16.538Z,18.90
2018-09-04T10:03:16.808Z,19.14
2018-09-04T10:04:17.102Z,19.22
2018-09-04T10:05:16.709Z,19.59
2018-09-04T10:06:17.015Z,19.25
2018-09-04T10:07:16.293Z,19.01
2018-09-04T10:08:16.582Z,19.15
2018-09-04T10:09:16.951Z,19.20
2018-09-04T10:10:16.263Z,19.22
2018-09-04T10:11:16.319Z,19.28
2018-09-04T10:12:16.770Z,19.39
2018-09-04T10:13:17.034Z,19.35
2018-09-04T10:14:16.958Z,19.38
2018-09-04T10:15:16.258Z,19.56
2018-09-04T10:16:16.530Z,19.21
2018-09-04T10:17:16.791Z,19.27
2018-09-04T10:18:17.067Z,19.44
2018-09-04T10:19:16.328Z,19.46
2018-09-04T10:20:16.609Z,19.31
2018-09-04T10:21:16.666Z,19.21
2018-09-04T10:22:17.049Z,19.42
2018-09-04T10:23:16.314Z,19.46
2018-09-04T10:24:16.595Z,19.55
2018-09-04T10:25:16.862Z,19.58
2018-09-04T10:26:17.127Z,19.80
2018-09-04T10:27:16.450Z,19.72
2018-09-04T10:28:16.722Z,19.69
2018-09-04T10:29:17.005Z,19.89
2018-09-04T10:30:16.280Z,20.01
2018-09-04T10:31:16.338Z,20.11
2018-09-04T10:32:16.618Z,20.20
2018-09-04T10:33:16.894Z,20.13
2018-09-04T10:34:17.173Z,20.27
2018-09-04T10:35:16.444Z,20.16
2018-09-04T10:36:16.768Z,20.34
2018-09-04T10:37:16.204Z,20.29
2018-09-04T10:38:16.473Z,20.37
2018-09-04T10:39:16.737Z,20.34
2018-09-04T10:40:17.024Z,20.38
2018-09-04T10:41:17.074Z,20.37
2018-09-04T10:42:16.345Z,20.32
2018-09-04T10:43:16.616Z,20.27
2018-09-04T10:44:16.951Z,20.24
2018-09-04T10:45:16.349Z,20.25
2018-09-04T10:46:16.620Z,20.32
2018-09-04T10:47:16.884Z,20.37
2018-09-04T10:48:17.203Z,20.17
2018-09-04T10:49:16.473Z,20.20
2018-09-04T10:50:16.759Z,20.29
2018-09-04T10:51:16.789Z,20.32
2018-09-04T10:52:17.071Z,20.28
2018-09-04T10:53:16.333Z,20.14
2018-09-04T10:54:16.599Z,20.24
2018-09-04T10:55:16.872Z,20.39
2018-09-04T10:56:17.134Z,20.35
2018-09-04T10:57:16.416Z,20.41
2018-09-04T10:58:16.693Z,20.59
2018-09-04T10:59:16.974Z,20.69
2018-09-04T11:00:16.270Z,20.51
2018-09-04T11:01:16.276Z,20.59
2018-09-04T11:02:16.582Z,20.72
2018-09-04T11:03:17.021Z,20.63
2018-09-04T11:04:16.297Z,20.78
2018-09-04T11:05:16.571Z,20.84
2018-09-04T11:06:16.839Z,20.78
2018-09-04T11:07:17.102Z,20.79
2018-09-04T11:08:16.369Z,20.59
2018-09-04T11:09:16.745Z,20.75
2018-09-04T11:10:16.221Z,20.90
2018-09-04T11:11:16.243Z,20.59
2018-09-04T11:12:16.509Z,20.52
2018-09-04T11:13:16.785Z,20.68
2018-09-04T11:14:17.048Z,20.94
2018-09-04T11:15:16.333Z,20.94
2018-09-04T11:16:16.608Z,20.97
2018-09-04T11:17:16.885Z,21.02
2018-09-04T11:18:17.162Z,21.03
2018-09-04T11:19:16.438Z,21.17
2018-09-04T11:20:16.715Z,21.34
2018-09-04T11:21:16.753Z,21.21
2018-09-04T11:22:17.031Z,21.45
2018-09-04T11:23:16.327Z,21.52
2018-09-04T11:24:16.595Z,21.29
2018-09-04T11:25:16.861Z,21.00
2018-09-04T11:26:17.124Z,21.09
2018-09-04T11:27:16.389Z,21.33
2018-09-04T11:28:16.652Z,21.68
2018-09-04T11:29:16.915Z,21.76
2018-09-04T11:30:17.196Z,21.70
2018-09-04T11:31:16.269Z,21.69
2018-09-04T11:32:16.558Z,21.72
2018-09-04T11:33:16.832Z,21.75
2018-09-04T11:34:17.105Z,21.95
2018-09-04T11:35:16.391Z,22.02
2018-09-04T11:36:16.669Z,21.59
2018-09-04T11:37:16.942Z,21.61
2018-09-04T11:38:16.211Z,21.85
2018-09-04T11:39:16.484Z,21.91
2018-09-04T11:40:16.776Z,22.07
2018-09-04T11:41:16.804Z,22.05
2018-09-04T11:42:17.077Z,22.16
2018-09-04T11:43:16.343Z,22.10
2018-09-04T11:44:16.617Z,21.97
2018-09-04T11:45:16.903Z,21.99
2018-09-04T11:46:17.185Z,22.10
2018-09-04T11:47:16.452Z,22.19
2018-09-04T11:48:16.737Z,22.41
2018-09-04T11:49:17.009Z,22.60
2018-09-04T11:50:16.305Z,22.60
2018-09-04T11:51:16.340Z,22.47
2018-09-04T11:52:16.933Z,22.55
2018-09-04T11:53:16.316Z,22.50
2018-09-04T11:54:16.582Z,22.62
2018-09-04T11:55:16.852Z,22.48
2018-09-04T11:56:17.121Z,22.45
2018-09-04T11:57:16.390Z,22.47
2018-09-04T11:58:16.652Z,22.45
2018-09-04T11:59:16.928Z,22.34
2018-09-04T12:00:17.221Z,22.34
2018-09-04T12:01:16.278Z,22.47
2018-09-04T12:02:16.646Z,22.26
2018-09-04T12:03:17.134Z,22.09
2018-09-04T12:04:16.405Z,22.23
2018-09-04T12:05:16.675Z,22.28
2018-09-04T12:06:16.943Z,22.16
2018-09-04T12:07:16.221Z,22.20
2018-09-04T12:08:16.497Z,22.06
2018-09-04T12:09:16.766Z,22.15
2018-09-04T12:10:17.049Z,22.20
2018-09-04T12:11:17.095Z,22.30
2018-09-04T12:12:16.424Z,22.28
2018-09-04T12:13:16.842Z,22.30
2018-09-04T12:14:16.269Z,22.23
2018-09-04T12:15:16.548Z,22.26
2018-09-04T12:16:16.820Z,22.20
2018-09-04T12:17:17.108Z,22.28
2018-09-04T12:18:16.390Z,22.28
2018-09-04T12:19:16.730Z,22.30
2018-09-04T12:20:16.268Z,22.43
2018-09-04T12:21:16.369Z,22.58
2018-09-04T12:22:16.788Z,22.60
2018-09-04T12:23:17.054Z,22.61
2018-09-04T12:24:16.332Z,22.67
2018-09-04T12:25:16.608Z,22.64
2018-09-04T12:26:16.876Z,22.85
2018-09-04T12:27:17.297Z,22.85
2018-09-04T12:28:16.782Z,22.95
2018-09-04T12:29:17.059Z,22.93
2018-09-04T12:30:16.331Z,22.96
2018-09-04T12:31:16.388Z,22.92
2018-09-04T12:32:16.664Z,23.03
2018-09-04T12:33:16.927Z,23.02
2018-09-04T12:34:17.197Z,22.96
2018-09-04T12:35:16.470Z,23.13
2018-09-04T12:36:16.738Z,23.19
2018-09-04T12:37:17.016Z,23.00
2018-09-04T12:38:16.292Z,23.05
2018-09-04T12:39:16.561Z,23.20
2018-09-04T12:40:16.851Z,23.27
2018-09-04T12:41:16.890Z,23.20
2018-09-04T12:42:17.167Z,23.20
2018-09-04T12:43:16.432Z,23.23
2018-09-04T12:44:16.715Z,23.26
2018-09-04T12:45:17.098Z,23.30
2018-09-04T12:46:16.364Z,23.37
2018-09-04T12:47:16.637Z,23.23
2018-09-04T12:48:16.999Z,23.09
2018-09-04T12:49:16.708Z,23.18
2018-09-04T12:50:16.988Z,23.22
2018-09-04T12:51:17.026Z,23.25
2018-09-04T12:52:16.358Z,23.22